Time;durP1;ratioP1;P1;durP2;ratioP2;P2;SDS_P1;SDS_P2;PMS_P1;PMS_P2;Temp;Humidity;BMP_temperature;BMP_pressure;BME280_temperature;BME280_humidity;BME280_pressure;Samples;Min_cycle;Max_cycle;Signal;HPM_P1;HPM_P2
2022/03/10 00:00:12;;;;;;;19.70;12.85;;;3.60;97.70;;;;;;5039873;28;20053;-54
2022/03/10 00:02:42;;;;;;;18.95;12.40;;;3.50;99.90;;;;;;5054405;28;20560;-53
2022/03/10 00:05:18;;;;;;;17.05;12.45;;;3.50;99.90;;;;;;5037650;28;20049;-54
2022/03/10 00:07:44;;;;;;;17.33;12.80;;;3.50;99.70;;;;;;5053431;28;20045;-54
2022/03/10 00:10:11;;;;;;;20.63;13.90;;;3.50;98.60;;;;;;5038359;28;20044;-58
2022/03/10 00:12:38;;;;;;;19.02;13.70;;;3.60;99.30;;;;;;5041099;28;20048;-57
2022/03/10 00:15:09;;;;;;;17.13;12.65;;;3.60;98.30;;;;;;5025922;28;20049;-58
2022/03/10 00:17:35;;;;;;;16.73;12.10;;;3.60;98.60;;;;;;5042206;28;20303;-58
2022/03/10 00:20:03;;;;;;;18.42;12.10;;;3.60;97.10;;;;;;5046103;28;20076;-57
2022/03/10 00:22:29;;;;;;;17.73;13.68;;;3.60;97.40;;;;;;5029984;28;20036;-58
2022/03/10 00:24:55;;;;;;;15.20;12.18;;;3.50;98.60;;;;;;5046273;28;20428;-58
2022/03/10 00:27:21;;;;;;;16.05;13.25;;;3.50;98.50;;;;;;5046992;28;20056;-58
2022/03/10 00:29:47;;;;;;;15.60;12.57;;;3.60;98.80;;;;;;5046861;28;20766;-54
2022/03/10 00:32:13;;;;;;;19.10;13.68;;;3.50;99.80;;;;;;5044034;28;20126;-58
2022/03/10 00:34:39;;;;;;;16.17;12.93;;;3.50;99.90;;;;;;5038636;28;20776;-53
2022/03/10 00:37:05;;;;;;;18.00;13.52;;;3.50;99.70;;;;;;5041968;28;20045;-57
2022/03/10 00:39:31;;;;;;;17.75;12.60;;;3.40;99.60;;;;;;5046877;28;20084;-58
2022/03/10 00:41:57;;;;;;;17.30;13.15;;;3.40;99.80;;;;;;5045519;28;20484;-58
2022/03/10 00:44:24;;;;;;;16.15;13.13;;;3.40;99.80;;;;;;5046479;28;20116;-58
2022/03/10 00:46:50;;;;;;;18.90;13.55;;;3.40;99.90;;;;;;5038744;28;20103;-58
2022/03/10 00:49:16;;;;;;;20.27;14.02;;;3.30;99.90;;;;;;5031297;28;20484;-58
2022/03/10 00:51:45;;;;;;;15.68;13.35;;;3.20;99.90;;;;;;5042681;28;20084;-58
2022/03/10 00:54:11;;;;;;;17.55;12.98;;;3.20;99.90;;;;;;5041271;28;20052;-54
2022/03/10 00:56:37;;;;;;;17.35;13.93;;;3.10;99.90;;;;;;5026156;28;20052;-54
2022/03/10 00:59:03;;;;;;;18.30;13.73;;;3.10;99.90;;;;;;5042040;28;20041;-58
2022/03/10 01:01:29;;;;;;;19.67;14.02;;;3.00;99.90;;;;;;5044133;28;20344;-60
2022/03/10 01:03:55;;;;;;;16.92;12.73;;;2.90;99.90;;;;;;5043888;28;20800;-58
2022/03/10 01:06:21;;;;;;;18.08;13.30;;;2.80;99.90;;;;;;5043924;28;20560;-58
2022/03/10 01:08:48;;;;;;;20.15;13.18;;;2.70;99.90;;;;;;5043774;28;20053;-58
2022/03/10 01:11:14;;;;;;;19.92;14.68;;;2.60;99.90;;;;;;5043947;28;20053;-57
2022/03/10 01:13:40;;;;;;;20.67;14.88;;;2.50;99.90;;;;;;5044479;28;20127;-58
2022/03/10 01:16:06;;;;;;;22.00;14.93;;;2.40;99.90;;;;;;5042814;28;20072;-58
2022/03/10 01:18:32;;;;;;;19.48;14.35;;;2.40;99.90;;;;;;5043588;28;20152;-55
2022/03/10 01:20:58;;;;;;;17.98;14.38;;;2.50;99.90;;;;;;5041434;28;20049;-55
2022/03/10 01:23:24;;;;;;;18.20;13.98;;;2.50;99.90;;;;;;5041365;28;20558;-54
2022/03/10 01:25:50;;;;;;;20.67;15.55;;;2.60;99.90;;;;;;5042198;28;20061;-56
2022/03/10 01:28:17;;;;;;;19.00;14.35;;;2.70;99.90;;;;;;5039691;28;20056;-55
2022/03/10 01:30:44;;;;;;;20.67;15.20;;;2.60;99.90;;;;;;5039903;28;20180;-54
2022/03/10 01:33:10;;;;;;;19.38;13.43;;;2.60;99.90;;;;;;5039798;28;20079;-55
2022/03/10 01:35:36;;;;;;;18.05;14.05;;;2.50;99.90;;;;;;5022185;28;20080;-54
2022/03/10 01:38:02;;;;;;;21.17;13.85;;;2.40;99.90;;;;;;5038255;28;20114;-55
2022/03/10 01:40:28;;;;;;;19.77;13.90;;;2.40;99.90;;;;;;5055243;28;20248;-58
2022/03/10 01:42:54;;;;;;;20.40;15.55;;;2.40;99.90;;;;;;5042538;28;20063;-58
2022/03/10 01:45:22;;;;;;;18.60;13.85;;;2.40;99.90;;;;;;5044400;28;20507;-58
2022/03/10 01:47:48;;;;;;;20.45;15.23;;;2.40;99.90;;;;;;5041755;28;20447;-58
2022/03/10 01:50:15;;;;;;;21.05;13.73;;;2.40;99.90;;;;;;5044296;28;20044;-58
2022/03/10 01:52:44;;;;;;;21.40;14.95;;;2.40;99.90;;;;;;5044235;28;21979;-58
2022/03/10 01:55:11;;;;;;;19.25;15.13;;;2.50;99.90;;;;;;5010956;28;20055;-58
2022/03/10 01:57:37;;;;;;;18.17;14.57;;;2.50;99.90;;;;;;5039976;28;20102;-55
2022/03/10 02:00:05;;;;;;;20.25;14.20;;;2.50;99.90;;;;;;5041323;28;20063;-55
2022/03/10 02:02:31;;;;;;;20.33;15.10;;;2.50;99.90;;;;;;5039644;28;20114;-58
2022/03/10 02:04:57;;;;;;;17.40;14.10;;;2.50;99.90;;;;;;5041413;28;20040;-58
2022/03/10 02:10:17;;;;;;;19.85;14.93;;;2.50;99.90;;;;;;5044192;28;20057;-55
2022/03/10 02:12:54;;;;;;;19.20;15.23;;;2.50;99.90;;;;;;5058924;28;20816;-53
2022/03/10 02:18:08;;;;;;;20.60;16.13;;;2.40;99.90;;;;;;5040509;28;20055;-54
2022/03/10 02:20:35;;;;;;;20.02;15.02;;;2.20;99.90;;;;;;5056463;28;20048;-59
2022/03/10 02:23:02;;;;;;;20.05;15.70;;;2.20;99.90;;;;;;5044710;28;20376;-59
2022/03/10 02:25:29;;;;;;;21.23;15.85;;;2.20;99.90;;;;;;5022526;28;20072;-55
2022/03/10 02:27:57;;;;;;;21.02;15.95;;;2.10;99.90;;;;;;5025418;28;20396;-59
2022/03/10 02:30:24;;;;;;;18.65;15.95;;;2.00;99.90;;;;;;5041766;28;20053;-59
2022/03/10 02:32:51;;;;;;;20.02;15.52;;;1.90;99.90;;;;;;5043005;28;20041;-55
2022/03/10 02:35:17;;;;;;;19.70;13.90;;;1.80;99.90;;;;;;5040269;28;20083;-58
2022/03/10 02:37:44;;;;;;;21.10;14.70;;;1.80;99.90;;;;;;5042922;28;20060;-55
2022/03/10 02:40:11;;;;;;;19.23;16.05;;;1.90;99.90;;;;;;5039293;28;20159;-55
2022/03/10 02:42:37;;;;;;;17.42;14.00;;;1.90;99.90;;;;;;5041453;28;20049;-55
2022/03/10 02:45:04;;;;;;;20.90;15.65;;;2.00;99.90;;;;;;5040889;28;20040;-55
2022/03/10 02:47:31;;;;;;;21.13;15.70;;;2.00;99.90;;;;;;5041066;28;20066;-55
2022/03/10 02:49:57;;;;;;;19.33;14.85;;;2.00;99.90;;;;;;5040424;28;20060;-58
2022/03/10 02:52:23;;;;;;;24.90;15.57;;;2.00;99.90;;;;;;5042854;28;20053;-59
2022/03/10 02:54:50;;;;;;;23.00;14.75;;;2.00;99.90;;;;;;5043201;28;20123;-58
2022/03/10 02:57:16;;;;;;;22.98;16.00;;;2.00;99.90;;;;;;5040192;28;20541;-57
2022/03/10 02:59:43;;;;;;;22.77;14.52;;;2.00;99.90;;;;;;5038548;28;20044;-59
2022/03/10 03:02:09;;;;;;;20.13;14.25;;;2.10;99.90;;;;;;5039947;28;20053;-53
2022/03/10 03:04:35;;;;;;;19.77;13.93;;;2.20;99.90;;;;;;5021574;28;20697;-55
2022/03/10 03:07:03;;;;;;;18.52;15.20;;;2.20;99.90;;;;;;5040384;28;20076;-58
2022/03/10 03:09:29;;;;;;;20.85;14.63;;;2.20;99.90;;;;;;5040125;28;20052;-54
2022/03/10 03:11:55;;;;;;;19.58;14.13;;;2.20;99.90;;;;;;5021185;28;20156;-55
2022/03/10 03:14:24;;;;;;;22.63;14.32;;;2.20;99.90;;;;;;5021668;28;20049;-58
2022/03/10 03:16:56;;;;;;;19.02;15.18;;;2.20;99.90;;;;;;5040725;28;20049;-55
2022/03/10 03:19:22;;;;;;;18.73;13.80;;;2.30;99.90;;;;;;5038320;28;20110;-53
2022/03/10 03:21:48;;;;;;;16.60;13.60;;;2.30;99.90;;;;;;5041022;28;20091;-58
2022/03/10 03:24:14;;;;;;;18.88;14.10;;;2.30;99.90;;;;;;5044283;28;20037;-59
2022/03/10 03:26:41;;;;;;;20.67;14.15;;;2.30;99.90;;;;;;5041021;28;20044;-55
2022/03/10 03:29:07;;;;;;;16.83;12.55;;;2.30;99.90;;;;;;5037509;28;20052;-54
2022/03/10 03:31:37;;;;;;;20.27;13.60;;;2.30;99.90;;;;;;5042942;28;20049;-59
2022/03/10 03:34:10;;;;;;;16.30;12.93;;;2.30;99.90;;;;;;5025345;28;20120;-59
2022/03/10 03:36:41;;;;;;;17.63;12.88;;;2.30;99.90;;;;;;5040393;28;20336;-59
2022/03/10 03:39:08;;;;;;;18.50;13.57;;;2.30;99.90;;;;;;5040363;28;20048;-55
2022/03/10 03:41:34;;;;;;;20.75;13.80;;;2.30;99.90;;;;;;5037277;28;20041;-53
2022/03/10 03:44:00;;;;;;;19.15;13.35;;;2.30;99.90;;;;;;5041290;28;20106;-55
2022/03/10 03:46:27;;;;;;;17.15;13.55;;;2.30;99.90;;;;;;5036661;28;20415;-55
2022/03/10 03:48:54;;;;;;;20.77;13.20;;;2.30;99.90;;;;;;5036409;28;20527;-55
2022/03/10 03:51:21;;;;;;;17.88;13.77;;;2.30;99.90;;;;;;5036447;28;20047;-53
2022/03/10 03:53:47;;;;;;;18.75;12.80;;;2.30;99.90;;;;;;5038177;28;20115;-58
2022/03/10 03:56:14;;;;;;;15.80;13.05;;;2.20;99.90;;;;;;5040100;28;20415;-59
2022/03/10 03:58:40;;;;;;;16.77;13.10;;;2.30;99.90;;;;;;5041026;28;20060;-59
2022/03/10 04:01:06;;;;;;;18.33;12.52;;;2.20;99.90;;;;;;5057934;28;20053;-59
2022/03/10 04:03:32;;;;;;;16.73;12.40;;;2.20;99.90;;;;;;5041893;28;20095;-59
2022/03/10 04:05:58;;;;;;;20.42;13.00;;;2.10;99.90;;;;;;5040631;28;20099;-59
2022/03/10 04:08:25;;;;;;;17.77;13.80;;;2.10;99.90;;;;;;5041688;28;20139;-59
2022/03/10 04:10:52;;;;;;;21.08;14.18;;;2.00;99.90;;;;;;5007755;28;20412;-59
2022/03/10 04:13:21;;;;;;;16.95;13.25;;;2.00;99.90;;;;;;5041801;28;20064;-59
2022/03/10 04:15:49;;;;;;;16.75;13.00;;;2.00;99.90;;;;;;5041510;28;20045;-59
2022/03/10 04:18:19;;;;;;;17.50;12.70;;;1.90;99.90;;;;;;5042653;28;20059;-59
2022/03/10 04:20:46;;;;;;;17.75;13.10;;;1.90;99.90;;;;;;5039522;28;20052;-59
2022/03/10 04:23:14;;;;;;;17.77;12.85;;;1.80;99.90;;;;;;5041690;28;20048;-59
2022/03/10 04:25:41;;;;;;;17.40;13.95;;;1.80;99.90;;;;;;5039564;28;20040;-59
2022/03/10 04:28:07;;;;;;;20.17;14.18;;;1.80;99.90;;;;;;5042995;28;20045;-60
2022/03/10 04:30:34;;;;;;;17.33;12.93;;;1.80;99.90;;;;;;5039475;28;20131;-60
2022/03/10 04:33:01;;;;;;;18.55;12.60;;;1.80;99.90;;;;;;5040505;28;20404;-58
2022/03/10 04:35:28;;;;;;;15.32;13.48;;;1.70;99.90;;;;;;5040201;28;20041;-58
2022/03/10 04:37:55;;;;;;;20.00;14.73;;;1.70;99.90;;;;;;5041369;28;20052;-55
2022/03/10 04:40:21;;;;;;;21.58;13.57;;;1.70;99.90;;;;;;5035470;28;20055;-54
2022/03/10 04:42:49;;;;;;;17.67;13.38;;;1.70;99.90;;;;;;5052025;28;20118;-55
2022/03/10 04:45:16;;;;;;;18.65;13.75;;;1.70;99.90;;;;;;5036428;28;20060;-56
2022/03/10 04:47:42;;;;;;;17.92;12.98;;;1.60;99.90;;;;;;5037584;28;20073;-56
2022/03/10 04:50:11;;;;;;;21.10;14.23;;;1.60;99.90;;;;;;5036030;28;20056;-55
2022/03/10 04:52:39;;;;;;;24.08;12.73;;;1.50;99.90;;;;;;5003205;28;20446;-52
2022/03/10 04:55:06;;;;;;;17.55;12.88;;;1.40;99.90;;;;;;5038751;28;20047;-55
2022/03/10 04:57:34;;;;;;;17.77;13.40;;;1.30;99.90;;;;;;5037179;28;20094;-56
2022/03/10 05:00:00;;;;;;;20.55;14.07;;;1.30;99.90;;;;;;5038941;28;20516;-56
2022/03/10 05:02:26;;;;;;;18.80;13.23;;;1.30;99.90;;;;;;5036425;28;20055;-57
2022/03/10 05:04:52;;;;;;;16.33;13.27;;;1.30;99.90;;;;;;5052964;28;20166;-56
2022/03/10 05:07:18;;;;;;;15.60;12.70;;;1.30;99.90;;;;;;5038419;28;20087;-56
2022/03/10 05:09:44;;;;;;;22.38;14.40;;;1.30;99.90;;;;;;5041029;28;20057;-60
2022/03/10 05:12:10;;;;;;;16.35;13.00;;;1.30;99.90;;;;;;5047002;28;20044;-60
2022/03/10 05:14:36;;;;;;;21.38;13.90;;;1.30;99.90;;;;;;5044674;28;20103;-61
2022/03/10 05:17:02;;;;;;;17.02;12.98;;;1.30;99.90;;;;;;5044587;28;20057;-55
2022/03/10 05:19:28;;;;;;;19.75;14.68;;;1.30;99.90;;;;;;5036252;28;20045;-61
2022/03/10 05:21:54;;;;;;;19.00;13.50;;;1.30;99.90;;;;;;5030091;28;20072;-61
2022/03/10 05:24:20;;;;;;;19.45;14.07;;;1.30;99.90;;;;;;5044469;28;21097;-55
2022/03/10 05:26:47;;;;;;;17.77;13.45;;;1.20;99.90;;;;;;5056132;28;20063;-55
2022/03/10 05:29:13;;;;;;;18.60;14.15;;;1.20;99.90;;;;;;5041455;28;20076;-57
2022/03/10 05:31:39;;;;;;;18.10;13.60;;;1.30;99.90;;;;;;5039938;28;20064;-55
2022/03/10 05:34:07;;;;;;;16.60;13.00;;;1.30;99.90;;;;;;5039489;28;20075;-56
2022/03/10 05:36:34;;;;;;;19.58;13.60;;;1.30;99.90;;;;;;5037225;28;20227;-57
2022/03/10 05:39:00;;;;;;;19.98;14.50;;;1.30;99.90;;;;;;5042103;28;20545;-57
2022/03/10 05:41:26;;;;;;;19.75;14.25;;;1.30;99.90;;;;;;5022594;28;20091;-56
2022/03/10 05:43:53;;;;;;;21.00;15.38;;;1.20;99.90;;;;;;5040261;28;20045;-54
2022/03/10 05:46:19;;;;;;;18.13;12.68;;;1.20;99.90;;;;;;5039054;28;20095;-56
2022/03/10 05:48:45;;;;;;;16.65;13.82;;;1.10;99.90;;;;;;5054941;28;20103;-57
2022/03/10 05:51:11;;;;;;;19.42;14.20;;;1.10;99.90;;;;;;5041065;28;20044;-56
2022/03/10 05:53:37;;;;;;;18.52;14.50;;;1.10;99.90;;;;;;5040606;28;20557;-56
2022/03/10 05:56:04;;;;;;;20.20;14.65;;;1.00;99.90;;;;;;5021181;28;20041;-56
2022/03/10 05:58:30;;;;;;;21.70;15.15;;;0.90;99.90;;;;;;5040676;28;20146;-58
2022/03/10 06:00:56;;;;;;;19.52;15.55;;;0.80;99.90;;;;;;5040816;28;20168;-58
2022/03/10 06:03:22;;;;;;;20.08;15.15;;;0.80;99.90;;;;;;5041010;28;20045;-57
2022/03/10 06:05:48;;;;;;;20.95;15.35;;;0.70;99.90;;;;;;5021605;28;20060;-57
2022/03/10 06:08:15;;;;;;;20.13;15.13;;;0.70;99.90;;;;;;5022271;28;20052;-57
2022/03/10 06:10:41;;;;;;;18.88;14.10;;;0.70;99.90;;;;;;5042076;28;20127;-57
2022/03/10 06:13:07;;;;;;;19.83;15.75;;;0.70;99.90;;;;;;5040485;28;20056;-58
2022/03/10 06:15:33;;;;;;;19.80;14.35;;;0.70;99.90;;;;;;5018023;28;20099;-57
2022/03/10 06:17:59;;;;;;;19.50;14.38;;;0.80;99.90;;;;;;5038004;28;20111;-57
2022/03/10 06:20:25;;;;;;;20.30;14.73;;;0.90;99.90;;;;;;5038991;28;20049;-57
2022/03/10 06:22:52;;;;;;;19.83;14.18;;;0.90;99.90;;;;;;5041562;28;20051;-58
2022/03/10 06:25:18;;;;;;;19.23;13.95;;;1.00;99.90;;;;;;5039481;28;20058;-58
2022/03/10 06:27:44;;;;;;;19.77;14.60;;;1.10;99.90;;;;;;5040752;28;20143;-57
2022/03/10 06:30:11;;;;;;;20.50;14.75;;;1.20;99.90;;;;;;5039351;28;20072;-57
2022/03/10 06:32:37;;;;;;;19.33;14.10;;;1.20;99.90;;;;;;5039530;28;21030;-59
2022/03/10 06:35:03;;;;;;;18.63;13.23;;;1.30;99.90;;;;;;5041218;28;20645;-59
2022/03/10 06:37:30;;;;;;;18.98;14.23;;;1.30;99.90;;;;;;5039902;28;20092;-59
2022/03/10 06:39:56;;;;;;;21.27;14.82;;;1.50;99.90;;;;;;5041864;28;20076;-60
2022/03/10 06:42:22;;;;;;;19.42;14.32;;;1.50;99.90;;;;;;5040661;28;20563;-59
2022/03/10 06:44:48;;;;;;;22.13;14.05;;;1.60;99.90;;;;;;5041340;28;20595;-59
2022/03/10 06:47:14;;;;;;;17.90;13.70;;;1.70;99.90;;;;;;5041530;28;21333;-60
2022/03/10 06:49:40;;;;;;;18.80;14.88;;;1.80;99.90;;;;;;5024485;28;20393;-60
2022/03/10 06:52:08;;;;;;;21.17;15.23;;;1.90;99.90;;;;;;5025514;28;20044;-60
2022/03/10 06:54:35;;;;;;;22.67;13.75;;;2.00;99.90;;;;;;5040953;28;20045;-60
2022/03/10 06:57:01;;;;;;;19.65;13.63;;;2.10;99.90;;;;;;5042453;28;20161;-60
2022/03/10 06:59:27;;;;;;;18.55;13.98;;;2.20;99.90;;;;;;5042060;28;20516;-60
2022/03/10 07:01:53;;;;;;;20.73;13.98;;;2.40;99.90;;;;;;5039009;28;20064;-60
2022/03/10 07:04:19;;;;;;;20.92;14.68;;;2.40;99.90;;;;;;5017586;28;20474;-60
2022/03/10 07:06:45;;;;;;;20.27;15.05;;;2.50;99.90;;;;;;5041613;28;20049;-60
2022/03/10 07:09:12;;;;;;;22.25;13.82;;;2.70;99.90;;;;;;5023248;28;20500;-60
2022/03/10 07:11:39;;;;;;;18.48;14.07;;;2.80;99.90;;;;;;5045250;28;20057;-60
2022/03/10 07:14:05;;;;;;;19.70;13.82;;;3.00;99.90;;;;;;5044726;28;20182;-60
2022/03/10 07:16:31;;;;;;;18.20;14.50;;;3.20;99.90;;;;;;5059243;28;20047;-60
2022/03/10 07:18:57;;;;;;;20.05;14.38;;;3.40;99.90;;;;;;5041068;28;20053;-58
2022/03/10 07:21:23;;;;;;;17.27;14.13;;;3.80;99.90;;;;;;5045126;28;20522;-60
2022/03/10 07:23:50;;;;;;;19.50;14.70;;;4.00;99.90;;;;;;5043726;28;20064;-58
2022/03/10 07:26:17;;;;;;;19.48;14.35;;;4.40;99.90;;;;;;5045400;28;20048;-58
2022/03/10 07:28:43;;;;;;;19.98;14.88;;;4.70;99.90;;;;;;5044334;28;20758;-58
2022/03/10 07:31:09;;;;;;;19.65;14.88;;;5.00;99.90;;;;;;5046430;28;20049;-58
2022/03/10 07:33:36;;;;;;;16.50;13.88;;;5.30;99.90;;;;;;5027253;28;20048;-57
2022/03/10 07:36:02;;;;;;;19.77;15.02;;;5.70;99.90;;;;;;5045995;28;20495;-58
2022/03/10 07:38:28;;;;;;;17.75;14.77;;;6.10;99.90;;;;;;5045729;28;20659;-58
2022/03/10 07:40:57;;;;;;;18.67;14.00;;;6.40;99.90;;;;;;5058413;28;20758;-58
2022/03/10 07:43:24;;;;;;;19.20;14.45;;;6.70;99.90;;;;;;5027119;28;20124;-58
2022/03/10 07:45:53;;;;;;;19.00;14.65;;;7.10;99.90;;;;;;5045375;28;20049;-58
2022/03/10 07:48:19;;;;;;;16.48;14.63;;;7.50;99.90;;;;;;5042373;28;20037;-58
2022/03/10 07:50:45;;;;;;;17.67;14.32;;;7.80;99.90;;;;;;5045653;28;20504;-59
2022/03/10 07:53:11;;;;;;;17.05;14.90;;;8.10;99.90;;;;;;5038017;28;20104;-56
2022/03/10 07:55:37;;;;;;;17.45;15.13;;;8.30;96.00;;;;;;5043061;28;20124;-56
2022/03/10 07:58:03;;;;;;;17.15;14.70;;;8.50;91.30;;;;;;5043031;28;20104;-56
2022/03/10 08:00:32;;;;;;;19.40;14.65;;;8.90;90.50;;;;;;5044221;28;20595;-56
2022/03/10 08:02:58;;;;;;;16.65;14.85;;;9.10;79.80;;;;;;5059570;28;20706;-56
2022/03/10 08:05:24;;;;;;;20.15;14.77;;;9.40;71.90;;;;;;5042562;28;20045;-55
2022/03/10 08:07:50;;;;;;;18.98;13.50;;;9.80;66.00;;;;;;5043070;28;20140;-56
2022/03/10 08:10:16;;;;;;;16.38;14.18;;;10.20;61.90;;;;;;5044329;28;20067;-56
2022/03/10 08:12:42;;;;;;;15.13;13.13;;;10.30;59.80;;;;;;5008785;28;20055;-58
2022/03/10 08:15:08;;;;;;;15.50;13.68;;;10.70;58.30;;;;;;5058806;28;20532;-59
2022/03/10 08:17:36;;;;;;;15.85;13.55;;;10.80;56.30;;;;;;5041098;28;20045;-61
2022/03/10 08:20:02;;;;;;;16.30;13.88;;;10.90;54.70;;;;;;5037200;28;20079;-60
2022/03/10 08:22:29;;;;;;;15.57;13.75;;;11.00;54.90;;;;;;5042733;28;20049;-59
2022/03/10 08:24:55;;;;;;;18.08;14.75;;;11.10;54.10;;;;;;5040587;28;20036;-59
2022/03/10 08:27:21;;;;;;;16.83;14.50;;;11.30;52.90;;;;;;5042701;28;20045;-59
2022/03/10 08:29:47;;;;;;;16.90;14.40;;;11.40;52.20;;;;;;5042599;28;20114;-59
2022/03/10 08:32:14;;;;;;;16.25;14.15;;;11.50;52.60;;;;;;5041050;28;20056;-59
2022/03/10 08:34:40;;;;;;;16.00;14.05;;;11.50;51.80;;;;;;5042349;28;20045;-59
2022/03/10 08:37:07;;;;;;;15.18;13.32;;;12.00;52.00;;;;;;5041005;28;20063;-58
2022/03/10 08:39:34;;;;;;;15.27;13.60;;;12.20;51.00;;;;;;5021861;28;20132;-59
2022/03/10 08:42:00;;;;;;;18.52;16.52;;;12.50;50.20;;;;;;5042400;28;20515;-61
2022/03/10 08:44:27;;;;;;;16.05;13.25;;;12.40;50.20;;;;;;5046314;28;20049;-60
2022/03/10 08:46:54;;;;;;;18.23;14.68;;;12.50;48.80;;;;;;5028378;28;20052;-61
2022/03/10 08:49:20;;;;;;;16.27;14.13;;;12.70;48.60;;;;;;5046618;28;20595;-58
2022/03/10 08:51:50;;;;;;;16.13;14.25;;;13.20;49.10;;;;;;5014899;28;20118;-56
2022/03/10 08:54:16;;;;;;;16.63;14.57;;;13.50;48.40;;;;;;5046041;28;20041;-60
2022/03/10 08:56:42;;;;;;;15.60;13.68;;;13.60;47.30;;;;;;5045699;28;20126;-56
2022/03/10 08:59:08;;;;;;;14.88;13.07;;;14.10;46.90;;;;;;5047068;28;20056;-60
2022/03/10 09:01:34;;;;;;;15.07;13.48;;;14.00;45.30;;;;;;5046613;28;20102;-59
2022/03/10 09:04:00;;;;;;;15.90;13.85;;;14.60;45.60;;;;;;5046881;28;20124;-56
2022/03/10 09:06:26;;;;;;;17.42;13.98;;;14.90;44.70;;;;;;5045076;28;20052;-56
2022/03/10 09:08:53;;;;;;;14.02;12.63;;;15.30;43.90;;;;;;5028394;28;20065;-60
2022/03/10 09:11:19;;;;;;;15.15;13.63;;;15.20;42.90;;;;;;5044978;28;20051;-58
2022/03/10 09:13:48;;;;;;;14.30;12.60;;;15.50;42.60;;;;;;5044736;28;20045;-59
2022/03/10 09:16:19;;;;;;;15.95;13.07;;;15.70;42.30;;;;;;5028465;28;20049;-56
2022/03/10 09:18:46;;;;;;;16.15;13.68;;;15.90;41.60;;;;;;5043081;28;20053;-60
2022/03/10 09:21:13;;;;;;;16.63;13.73;;;15.90;41.60;;;;;;5046670;28;20148;-60
2022/03/10 09:23:39;;;;;;;15.32;13.70;;;15.90;41.40;;;;;;5045605;28;20048;-60
2022/03/10 09:26:05;;;;;;;13.95;12.45;;;16.20;41.50;;;;;;5045153;28;20043;-55
2022/03/10 09:28:31;;;;;;;15.07;13.55;;;16.20;40.80;;;;;;5044320;28;20041;-56
2022/03/10 09:30:58;;;;;;;18.77;13.20;;;16.10;41.10;;;;;;5027068;28;20056;-59
2022/03/10 09:33:24;;;;;;;15.77;13.05;;;16.50;39.60;;;;;;5028324;28;20079;-56
2022/03/10 09:35:50;;;;;;;14.95;13.25;;;16.50;39.60;;;;;;5045078;28;20062;-60
2022/03/10 09:38:17;;;;;;;15.85;12.95;;;16.40;39.10;;;;;;5047234;28;20057;-59
2022/03/10 09:40:43;;;;;;;16.52;13.88;;;16.70;39.60;;;;;;5046961;28;20044;-59
2022/03/10 09:43:10;;;;;;;15.35;13.20;;;17.00;39.10;;;;;;5045199;28;20066;-59
2022/03/10 09:45:37;;;;;;;15.80;12.73;;;17.20;38.70;;;;;;5043491;28;20126;-59
2022/03/10 09:48:04;;;;;;;16.25;13.50;;;17.20;38.80;;;;;;5047882;28;20087;-59
2022/03/10 09:50:30;;;;;;;16.50;13.75;;;17.10;39.10;;;;;;5028502;28;20194;-59
2022/03/10 09:52:56;;;;;;;15.30;12.98;;;17.10;38.40;;;;;;5045802;28;20083;-58
2022/03/10 09:55:22;;;;;;;15.90;14.15;;;17.20;38.10;;;;;;5046263;28;20052;-59
2022/03/10 09:57:50;;;;;;;14.57;13.07;;;17.20;37.20;;;;;;5044171;28;20123;-54
2022/03/10 10:00:17;;;;;;;17.52;13.65;;;17.30;37.10;;;;;;5039909;28;20111;-54
2022/03/10 10:02:45;;;;;;;15.43;13.73;;;17.10;36.90;;;;;;5040712;28;20048;-54
2022/03/10 10:05:21;;;;;;;14.60;12.85;;;17.30;36.90;;;;;;5038238;28;20037;-59
2022/03/10 10:08:13;;;;;;;14.95;12.57;;;17.50;36.70;;;;;;5044153;28;20057;-59
2022/03/10 10:10:47;;;;;;;33.42;28.80;;;17.60;36.70;;;;;;5043404;28;20057;-59
2022/03/10 10:13:23;;;;;;;15.63;13.10;;;17.80;36.30;;;;;;5044829;28;20103;-61
2022/03/10 10:15:54;;;;;;;15.98;14.27;;;17.80;36.70;;;;;;5044783;28;20053;-59
2022/03/10 10:18:21;;;;;;;17.27;13.82;;;18.00;35.60;;;;;;5041546;28;20056;-60
2022/03/10 10:20:49;;;;;;;15.00;13.40;;;17.90;35.80;;;;;;5054379;28;20063;-62
2022/03/10 10:23:32;;;;;;;15.00;13.38;;;18.10;35.60;;;;;;5040985;28;20045;-62
2022/03/10 10:26:10;;;;;;;16.08;14.35;;;17.80;34.10;;;;;;5042873;28;20277;-63
2022/03/10 10:28:41;;;;;;;14.40;12.90;;;18.20;35.70;;;;;;5042256;28;20289;-62
2022/03/10 10:31:15;;;;;;;15.38;13.80;;;18.50;34.70;;;;;;5046392;28;20479;-62
2022/03/10 10:33:54;;;;;;;16.02;13.95;;;18.70;34.60;;;;;;5039510;28;20049;-56
2022/03/10 10:36:26;;;;;;;15.90;13.68;;;18.80;34.50;;;;;;5040317;28;20052;-55
2022/03/10 10:38:54;;;;;;;17.92;14.32;;;19.00;35.00;;;;;;5041639;28;20099;-55
2022/03/10 10:41:31;;;;;;;16.45;14.73;;;19.10;34.30;;;;;;5044494;28;20159;-61
2022/03/10 10:44:15;;;;;;;15.55;13.98;;;19.00;34.40;;;;;;5042011;28;20706;-62
2022/03/10 10:46:51;;;;;;;16.92;15.18;;;19.10;35.00;;;;;;5041394;28;20048;-56
2022/03/10 10:49:20;;;;;;;17.00;15.07;;;18.90;33.70;;;;;;5045946;28;20052;-55
2022/03/10 10:51:50;;;;;;;15.77;14.13;;;19.40;33.80;;;;;;5044340;28;20052;-55
2022/03/10 10:54:19;;;;;;;16.95;15.25;;;19.50;33.60;;;;;;5041857;28;20891;-60
2022/03/10 10:57:01;;;;;;;16.70;15.00;;;19.60;33.30;;;;;;5050227;28;20052;-54
2022/03/10 10:59:36;;;;;;;;;;;20.10;33.70;;;;;;5043855;28;20053;-60
2022/03/10 11:02:21;;;;;;;15.65;14.02;;;19.90;31.50;;;;;;5042807;28;19920;-61
2022/03/10 11:04:52;;;;;;;16.50;14.73;;;20.20;33.80;;;;;;5041478;28;20049;-61
2022/03/10 11:07:20;;;;;;;17.77;16.00;;;20.10;33.70;;;;;;5043978;28;20056;-61
2022/03/10 11:09:48;;;;;;;15.65;14.05;;;20.30;33.10;;;;;;5040701;28;20587;-62
2022/03/10 11:12:16;;;;;;;17.65;15.77;;;20.30;32.90;;;;;;5026184;28;21048;-61
2022/03/10 11:14:44;;;;;;;16.05;14.40;;;20.40;32.10;;;;;;5041208;28;20063;-61
2022/03/10 11:17:12;;;;;;;16.42;14.73;;;20.50;31.90;;;;;;5043524;28;20037;-61
2022/03/10 11:19:44;;;;;;;16.42;14.27;;;19.80;32.00;;;;;;5044242;28;20041;-61
2022/03/10 11:22:28;;;;;;;;;;;20.70;32.70;;;;;;5044001;28;20051;-61
2022/03/10 11:25:01;;;;;;;17.75;15.68;;;20.30;31.80;;;;;;5025551;28;20360;-61
2022/03/10 11:27:32;;;;;;;17.13;15.10;;;20.70;32.60;;;;;;5043462;28;20051;-61
2022/03/10 11:30:00;;;;;;;;;;;20.80;32.70;;;;;;5043360;28;20056;-61
2022/03/10 11:32:28;;;;;;;16.40;14.50;;;20.90;31.40;;;;;;5044127;28;20327;-61
2022/03/10 11:34:58;;;;;;;17.42;14.65;;;21.20;32.00;;;;;;5043231;28;20048;-61
2022/03/10 11:37:42;;;;;;;17.38;14.88;;;20.80;31.20;;;;;;5043147;28;20048;-61
2022/03/10 11:40:12;;;;;;;17.50;15.60;;;21.20;30.80;;;;;;5043064;28;20060;-61
2022/03/10 11:42:39;;;;;;;17.33;15.48;;;21.00;31.30;;;;;;5028442;28;20049;-60
2022/03/10 11:45:11;;;;;;;17.58;15.77;;;21.00;31.10;;;;;;5043908;28;20056;-61
2022/03/10 11:47:39;;;;;;;17.42;15.50;;;21.00;31.00;;;;;;5045398;28;20048;-61
2022/03/10 11:50:24;;;;;;;16.83;15.13;;;21.30;31.00;;;;;;5026764;28;20053;-61
2022/03/10 11:53:01;;;;;;;18.35;16.02;;;21.50;29.80;;;;;;5043647;28;20071;-60
2022/03/10 11:55:45;;;;;;;19.50;16.88;;;21.70;29.40;;;;;;5044075;28;20499;-60
2022/03/10 11:58:13;;;;;;;17.83;16.02;;;21.70;28.50;;;;;;5046680;28;20492;-61
2022/03/10 12:00:49;;;;;;;17.55;15.82;;;21.10;29.20;;;;;;5026714;28;20044;-55
2022/03/10 12:03:35;;;;;;;17.95;15.73;;;21.00;30.10;;;;;;5041786;28;20049;-60
2022/03/10 12:06:04;;;;;;;17.90;16.08;;;20.80;29.50;;;;;;5043889;28;20045;-60
2022/03/10 12:08:37;;;;;;;16.88;14.98;;;21.30;29.80;;;;;;5045339;28;20048;-61
2022/03/10 12:11:06;;;;;;;17.45;15.40;;;21.70;29.50;;;;;;5045877;28;20056;-61
2022/03/10 12:13:39;;;;;;;21.67;16.67;;;22.40;29.60;;;;;;5044568;28;20063;-60
2022/03/10 12:16:07;;;;;;;19.25;15.75;;;22.20;30.20;;;;;;5026436;28;20044;-62
2022/03/10 12:18:42;;;;;;;18.25;15.95;;;22.40;29.10;;;;;;5042726;28;21607;-61
2022/03/10 12:21:17;;;;;;;18.05;16.00;;;22.50;28.90;;;;;;5045226;28;20044;-61
2022/03/10 12:24:01;;;;;;;18.17;16.25;;;22.20;28.30;;;;;;5044148;28;20045;-61
2022/03/10 12:26:31;;;;;;;19.05;16.05;;;22.90;28.10;;;;;;5025396;28;20060;-60
2022/03/10 12:29:00;;;;;;;17.60;15.70;;;23.10;28.60;;;;;;5047254;28;20118;-60
2022/03/10 12:31:29;;;;;;;20.42;15.63;;;22.70;28.50;;;;;;5047757;28;20044;-61
2022/03/10 12:33:59;;;;;;;18.65;16.20;;;22.50;28.30;;;;;;5044056;28;20104;-56
2022/03/10 12:36:26;;;;;;;18.08;16.20;;;22.60;28.80;;;;;;5041875;28;20048;-56
2022/03/10 12:38:53;;;;;;;18.75;15.57;;;22.60;28.70;;;;;;5028431;28;20049;-62
2022/03/10 12:41:20;;;;;;;20.67;16.70;;;22.10;29.00;;;;;;5043445;28;20049;-61